createdAt,value
2023-03-06T00:00:21.873Z,61.60
2023-03-06T00:02:49.058Z,62.03
2023-03-06T00:05:15.990Z,62.41
2023-03-06T00:07:43.325Z,61.98
2023-03-06T00:10:16.690Z,60.59
2023-03-06T00:12:43.456Z,61.92
2023-03-06T00:15:10.668Z,62.65
2023-03-06T00:17:37.314Z,62.82
2023-03-06T00:20:05.074Z,62.42
2023-03-06T00:22:32.013Z,61.36
2023-03-06T00:24:58.613Z,62.06
2023-03-06T00:27:26.228Z,62.00
2023-03-06T00:29:56.129Z,62.70
2023-03-06T00:32:23.778Z,62.44
2023-03-06T00:34:52.016Z,62.19
2023-03-06T00:37:19.336Z,62.39
2023-03-06T00:39:46.547Z,62.91
2023-03-06T00:42:13.492Z,62.06
2023-03-06T00:44:40.079Z,61.15
2023-03-06T00:47:06.684Z,61.38
2023-03-06T00:49:33.318Z,61.77
2023-03-06T00:52:00.316Z,62.01
2023-03-06T00:54:26.864Z,60.73
2023-03-06T00:56:53.491Z,59.81
2023-03-06T00:59:20.049Z,61.35
2023-03-06T01:01:46.872Z,61.83
2023-03-06T01:04:14.520Z,61.27
2023-03-06T01:06:41.230Z,60.64
2023-03-06T01:09:07.833Z,61.11
2023-03-06T01:11:34.388Z,61.40
2023-03-06T01:14:01.050Z,60.65
2023-03-06T01:16:27.753Z,60.10
2023-03-06T01:18:54.496Z,60.13
2023-03-06T01:21:23.018Z,59.72
2023-03-06T01:23:49.986Z,59.07
2023-03-06T01:26:16.715Z,59.17
2023-03-06T01:28:43.531Z,58.96
2023-03-06T01:31:10.712Z,59.22
2023-03-06T01:33:38.502Z,59.23
2023-03-06T01:36:11.294Z,59.07
2023-03-06T01:38:38.108Z,59.11
2023-03-06T01:41:05.481Z,59.16
2023-03-06T01:43:35.774Z,59.14
2023-03-06T01:46:28.303Z,59.39
2023-03-06T01:49:06.485Z,59.69
2023-03-06T01:51:40.618Z,59.68
2023-03-06T01:54:15.308Z,59.40
2023-03-06T01:56:46.778Z,59.45
2023-03-06T01:59:14.609Z,59.59
2023-03-06T02:01:41.820Z,58.97
2023-03-06T02:04:09.777Z,59.17
2023-03-06T02:06:38.794Z,59.21
2023-03-06T02:09:06.546Z,59.23
2023-03-06T02:11:33.387Z,59.32
2023-03-06T02:14:00.291Z,59.06
2023-03-06T02:16:29.437Z,58.74
2023-03-06T02:18:58.546Z,58.81
2023-03-06T02:21:28.976Z,59.51
2023-03-06T02:24:29.454Z,59.37
2023-03-06T02:26:57.537Z,58.92
2023-03-06T02:29:27.512Z,58.98
2023-03-06T02:31:56.711Z,58.68
2023-03-06T02:34:23.181Z,58.74
2023-03-06T02:37:02.924Z,59.34
2023-03-06T02:39:32.894Z,60.41
2023-03-06T02:42:00.044Z,60.68
2023-03-06T02:44:30.194Z,60.17
2023-03-06T02:46:56.768Z,59.82
2023-03-06T02:49:26.066Z,60.58
2023-03-06T02:51:52.982Z,61.25
2023-03-06T02:54:19.611Z,59.59
2023-03-06T02:56:46.367Z,60.41
2023-03-06T02:59:13.166Z,61.02
2023-03-06T03:01:39.952Z,61.89
2023-03-06T03:04:06.624Z,60.71
2023-03-06T03:06:33.239Z,60.91
2023-03-06T03:09:00.243Z,61.95
2023-03-06T03:11:27.975Z,62.71
2023-03-06T03:13:54.816Z,61.70
2023-03-06T03:16:24.192Z,61.90
2023-03-06T03:18:53.644Z,61.95
2023-03-06T03:21:22.238Z,61.16
2023-03-06T03:23:49.167Z,60.52
2023-03-06T03:26:18.777Z,60.00
2023-03-06T03:28:52.760Z,59.77
2023-03-06T03:31:21.099Z,59.68
2023-03-06T03:33:47.736Z,59.53
2023-03-06T03:36:14.335Z,59.22
2023-03-06T03:38:44.837Z,59.45
2023-03-06T03:41:11.712Z,59.23
2023-03-06T03:43:38.312Z,59.16
2023-03-06T03:46:05.972Z,58.98
2023-03-06T03:48:32.888Z,58.98
2023-03-06T03:51:09.244Z,58.72
2023-03-06T03:53:39.526Z,59.22
2023-03-06T03:56:07.569Z,59.13
2023-03-06T03:58:40.106Z,58.76
2023-03-06T04:01:06.657Z,58.69
2023-03-06T04:03:34.055Z,59.48
2023-03-06T04:06:01.255Z,59.34
2023-03-06T04:08:28.431Z,59.11
2023-03-06T04:10:56.037Z,59.62
2023-03-06T04:13:23.888Z,60.58
2023-03-06T04:15:54.893Z,59.82
2023-03-06T04:18:23.511Z,59.36
2023-03-06T04:20:51.535Z,58.58
2023-03-06T04:23:19.085Z,58.87
2023-03-06T04:25:46.787Z,58.95
2023-03-06T04:28:13.376Z,58.74
2023-03-06T04:30:40.030Z,58.98
2023-03-06T04:33:07.418Z,58.64
2023-03-06T04:35:34.490Z,58.67
2023-03-06T04:38:05.964Z,58.81
2023-03-06T04:40:35.206Z,58.86
2023-03-06T04:43:03.131Z,59.15
2023-03-06T04:45:31.437Z,58.95
2023-03-06T04:47:58.564Z,58.87
2023-03-06T04:50:26.114Z,59.04
2023-03-06T04:52:52.965Z,58.98
2023-03-06T04:55:19.766Z,58.96
2023-03-06T04:57:47.411Z,59.02
2023-03-06T05:00:17.248Z,58.72
2023-03-06T05:02:44.441Z,59.35
2023-03-06T05:05:12.264Z,59.03
2023-03-06T05:07:39.482Z,60.46
2023-03-06T05:10:06.862Z,60.90
2023-03-06T05:12:37.146Z,61.33
2023-03-06T05:15:05.122Z,60.61
2023-03-06T05:17:32.284Z,59.88
2023-03-06T05:19:58.800Z,59.22
2023-03-06T05:22:25.357Z,58.71
2023-03-06T05:24:51.926Z,58.83
2023-03-06T05:27:18.651Z,59.17
2023-03-06T05:29:45.182Z,58.72
2023-03-06T05:32:11.889Z,58.43
2023-03-06T05:34:40.006Z,58.84
2023-03-06T05:37:06.643Z,58.34
2023-03-06T05:39:33.323Z,58.50
2023-03-06T05:41:59.881Z,58.96
2023-03-06T05:44:32.013Z,59.95
2023-03-06T05:46:58.790Z,61.41
2023-03-06T05:49:25.654Z,62.39
2023-03-06T05:51:52.216Z,61.70
2023-03-06T05:54:19.243Z,61.88
2023-03-06T05:56:46.046Z,62.12
2023-03-06T05:59:12.615Z,61.21
2023-03-06T06:01:39.217Z,60.96
2023-03-06T06:04:05.806Z,61.73
2023-03-06T06:06:32.402Z,60.45
2023-03-06T06:08:59.036Z,59.88
2023-03-06T06:11:25.583Z,60.63
2023-03-06T06:13:52.201Z,60.74
2023-03-06T06:16:19.438Z,59.83
2023-03-06T06:18:46.209Z,60.53
2023-03-06T06:21:14.743Z,59.96
2023-03-06T06:23:41.619Z,61.34
2023-03-06T06:26:10.245Z,62.01
2023-03-06T06:28:37.344Z,62.32
2023-03-06T06:31:12.457Z,62.53
2023-03-06T06:33:40.453Z,62.84
2023-03-06T06:36:16.331Z,62.83
2023-03-06T06:38:43.505Z,63.20
2023-03-06T06:43:59.001Z,63.34
2023-03-06T06:47:09.577Z,62.14
2023-03-06T06:49:13.873Z,62.28
2023-03-06T06:51:41.262Z,61.77
2023-03-06T06:54:08.318Z,62.54
2023-03-06T06:56:35.132Z,62.66
2023-03-06T06:59:15.742Z,62.63
2023-03-06T07:01:43.292Z,62.66
2023-03-06T07:04:14.474Z,63.32
2023-03-06T07:06:41.702Z,62.74
2023-03-06T07:09:08.293Z,62.01
2023-03-06T07:11:34.950Z,61.49
2023-03-06T07:14:01.981Z,62.52
2023-03-06T07:16:28.568Z,62.41
2023-03-06T07:18:55.169Z,62.45
2023-03-06T07:21:21.978Z,63.02
2023-03-06T07:23:48.662Z,62.94
2023-03-06T07:26:15.244Z,63.08
2023-03-06T07:28:51.943Z,62.17
2023-03-06T07:31:26.503Z,61.44
2023-03-06T07:33:54.553Z,61.28
2023-03-06T07:36:22.897Z,61.84
2023-03-06T07:38:49.687Z,62.56
2023-03-06T07:41:17.147Z,63.04
2023-03-06T07:43:45.383Z,62.25
2023-03-06T07:46:14.185Z,62.48
2023-03-06T07:48:41.785Z,62.30
2023-03-06T07:51:15.276Z,61.87
2023-03-06T07:53:42.480Z,62.11
2023-03-06T07:56:09.542Z,62.63
2023-03-06T07:58:37.744Z,62.43
2023-03-06T08:01:06.274Z,63.71
2023-03-06T08:03:33.990Z,63.54
2023-03-06T08:06:06.394Z,63.66
2023-03-06T08:08:34.920Z,63.41
2023-03-06T08:11:01.549Z,63.88
2023-03-06T08:13:28.152Z,64.26
2023-03-06T08:15:54.713Z,63.61
2023-03-06T08:18:21.286Z,63.85
2023-03-06T08:20:48.073Z,64.54
2023-03-06T08:23:14.681Z,64.13
2023-03-06T08:25:41.256Z,64.75
2023-03-06T08:28:07.848Z,65.10
2023-03-06T08:30:34.450Z,64.26
2023-03-06T08:33:01.397Z,64.91
2023-03-06T08:35:28.062Z,64.53
2023-03-06T08:37:54.604Z,64.51
2023-03-06T08:40:23.141Z,64.96
2023-03-06T08:42:49.686Z,65.08
2023-03-06T08:45:16.303Z,64.72
2023-03-06T08:47:42.869Z,64.15
2023-03-06T08:50:10.187Z,64.55
2023-03-06T08:52:36.815Z,64.57
2023-03-06T08:55:03.980Z,64.39
2023-03-06T08:57:30.803Z,65.07
2023-03-06T08:59:57.586Z,65.51
2023-03-06T09:02:24.154Z,64.46
2023-03-06T09:04:50.768Z,65.00
2023-03-06T09:07:17.421Z,64.40
2023-03-06T09:09:44.031Z,64.44
2023-03-06T09:12:10.613Z,64.85
2023-03-06T09:14:37.252Z,64.71
2023-03-06T09:17:03.850Z,64.73
2023-03-06T09:19:30.407Z,65.39
2023-03-06T09:21:57.886Z,64.75
2023-03-06T09:24:24.537Z,64.42
2023-03-06T09:26:51.679Z,64.37
2023-03-06T09:29:18.609Z,64.60
2023-03-06T09:31:45.608Z,64.44
2023-03-06T09:34:12.446Z,64.60
2023-03-06T09:36:53.710Z,63.68
2023-03-06T09:39:22.403Z,63.89
2023-03-06T09:41:49.858Z,64.99
2023-03-06T09:44:29.173Z,64.77
2023-03-06T09:47:25.676Z,63.74
2023-03-06T09:50:22.013Z,63.77
2023-03-06T09:53:15.128Z,64.16
2023-03-06T09:55:44.148Z,64.34
2023-03-06T09:58:25.265Z,64.59
2023-03-06T10:00:57.587Z,65.11
2023-03-06T10:03:44.991Z,63.88
2023-03-06T10:06:16.302Z,64.77
2023-03-06T10:08:51.453Z,63.58
2023-03-06T10:11:32.609Z,63.28
2023-03-06T10:14:14.044Z,64.09
2023-03-06T10:16:40.864Z,63.28
2023-03-06T10:19:14.361Z,64.12
2023-03-06T10:22:04.357Z,63.04
2023-03-06T10:25:10.650Z,63.26
2023-03-06T10:27:49.287Z,62.79
2023-03-06T10:30:33.847Z,62.86
2023-03-06T10:33:07.902Z,62.67
2023-03-06T10:35:48.250Z,62.45
2023-03-06T10:38:24.597Z,62.57
2023-03-06T10:40:55.613Z,62.06
2023-03-06T10:43:23.398Z,61.04
2023-03-06T10:45:53.113Z,61.13
2023-03-06T10:48:25.356Z,61.42
2023-03-06T10:50:54.863Z,61.34
2023-03-06T10:53:23.253Z,60.58
2023-03-06T10:56:09.536Z,60.72
2023-03-06T10:58:36.300Z,60.88
2023-03-06T11:01:07.225Z,61.37
2023-03-06T11:03:35.808Z,61.76
2023-03-06T11:06:15.608Z,61.75
2023-03-06T11:08:44.388Z,60.63
2023-03-06T11:11:36.554Z,61.12
2023-03-06T11:14:14.685Z,60.54
2023-03-06T11:16:51.890Z,60.62
2023-03-06T11:19:28.037Z,60.30
2023-03-06T11:22:05.999Z,60.69
2023-03-06T11:24:40.526Z,59.86
2023-03-06T11:27:30.830Z,60.02
2023-03-06T11:30:01.465Z,60.23
2023-03-06T11:32:33.133Z,59.43
2023-03-06T11:35:04.849Z,59.69
2023-03-06T11:37:45.679Z,60.75
2023-03-06T11:40:12.183Z,60.64
2023-03-06T11:43:30.000Z,60.12
2023-03-06T11:46:02.019Z,59.73
2023-03-06T11:48:35.376Z,59.46
2023-03-06T11:51:14.289Z,59.46
2023-03-06T11:53:40.992Z,60.35
2023-03-06T11:56:31.762Z,59.79
2023-03-06T11:59:07.750Z,59.33
2023-03-06T12:02:14.577Z,59.75
2023-03-06T12:04:56.444Z,60.48
2023-03-06T12:07:32.233Z,59.65
2023-03-06T12:10:14.305Z,58.89
2023-03-06T12:16:18.580Z,58.99
2023-03-06T12:19:02.942Z,58.92
2023-03-06T12:21:47.746Z,58.69
2023-03-06T12:24:29.480Z,58.90
2023-03-06T12:26:55.931Z,57.99
2023-03-06T12:29:47.731Z,57.74
2023-03-06T12:32:32.571Z,58.27
2023-03-06T12:35:37.087Z,58.56
2023-03-06T12:38:17.323Z,58.20
2023-03-06T12:41:01.420Z,58.92
2023-03-06T12:44:09.518Z,57.67
2023-03-06T12:46:41.577Z,57.24
2023-03-06T12:49:23.046Z,57.60
2023-03-06T12:51:58.418Z,56.75
2023-03-06T12:54:29.161Z,56.67
2023-03-06T12:56:57.827Z,57.06
2023-03-06T12:59:48.501Z,57.51
2023-03-06T13:02:36.396Z,56.94
2023-03-06T13:05:30.396Z,56.11
2023-03-06T13:07:56.943Z,56.68
2023-03-06T13:10:30.868Z,56.81
2023-03-06T13:13:01.621Z,56.48
2023-03-06T13:15:38.786Z,57.00
2023-03-06T13:18:23.386Z,55.86
2023-03-06T13:20:52.383Z,55.87
2023-03-06T13:23:37.309Z,55.17
2023-03-06T13:26:24.372Z,56.05
2023-03-06T13:28:53.968Z,56.12
2023-03-06T13:31:47.834Z,55.47
2023-03-06T13:34:36.340Z,55.49
2023-03-06T13:37:23.170Z,55.93
2023-03-06T13:39:55.600Z,55.03
2023-03-06T13:42:36.610Z,55.03
2023-03-06T13:45:16.523Z,54.92
2023-03-06T13:50:46.885Z,55.17
2023-03-06T13:53:46.807Z,54.52
2023-03-06T13:56:47.372Z,54.58
2023-03-06T13:59:41.952Z,54.69
2023-03-06T14:02:16.767Z,55.32
2023-03-06T14:04:54.568Z,54.21
2023-03-06T14:07:25.677Z,54.59
2023-03-06T14:10:03.028Z,54.04
2023-03-06T14:12:36.055Z,53.81
2023-03-06T14:15:17.608Z,53.96
2023-03-06T14:18:05.850Z,53.22
2023-03-06T14:20:42.147Z,53.23
2023-03-06T14:23:21.622Z,53.19
2023-03-06T14:25:54.941Z,53.05
2023-03-06T14:28:24.187Z,52.78
2023-03-06T14:30:53.077Z,53.58
2023-03-06T14:33:44.825Z,53.14
2023-03-06T14:36:14.912Z,53.52
2023-03-06T14:38:51.689Z,52.04
2023-03-06T14:41:30.263Z,52.76
2023-03-06T14:44:12.012Z,52.98
2023-03-06T14:46:38.533Z,52.72
2023-03-06T14:49:08.807Z,52.75
2023-03-06T14:51:42.816Z,52.69
2023-03-06T14:54:17.255Z,53.37
2023-03-06T14:56:47.373Z,53.09
2023-03-06T14:59:18.196Z,53.63
2023-03-06T15:01:49.475Z,53.48
2023-03-06T15:04:36.554Z,53.47
2023-03-06T15:07:09.404Z,53.76
2023-03-06T15:09:38.633Z,53.35
2023-03-06T15:12:08.633Z,52.79
2023-03-06T15:14:41.234Z,53.72
2023-03-06T15:17:17.030Z,53.36
2023-03-06T15:19:48.544Z,53.55
2023-03-06T15:22:39.196Z,53.95
2023-03-06T15:25:29.975Z,54.21
2023-03-06T15:27:57.522Z,54.26
2023-03-06T15:30:29.839Z,53.72
2023-03-06T15:33:24.380Z,53.32
2023-03-06T15:36:21.280Z,53.78
2023-03-06T15:38:48.271Z,53.65
2023-03-06T15:41:30.300Z,54.22
2023-03-06T15:43:58.484Z,54.60
2023-03-06T15:46:25.387Z,54.66
2023-03-06T15:48:53.950Z,54.37
2023-03-06T15:51:20.634Z,54.08
2023-03-06T15:53:47.927Z,54.34
2023-03-06T15:56:14.639Z,54.30
2023-03-06T15:58:42.490Z,54.37
2023-03-06T16:01:16.080Z,54.23
2023-03-06T16:03:42.971Z,53.31
2023-03-06T16:06:19.663Z,54.29
2023-03-06T16:08:46.283Z,54.54
2023-03-06T16:11:43.325Z,54.17
2023-03-06T16:14:23.742Z,54.57
2023-03-06T16:16:52.197Z,54.06
2023-03-06T16:19:26.444Z,54.01
2023-03-06T16:21:54.882Z,54.76
2023-03-06T16:24:21.861Z,55.34
2023-03-06T16:26:52.895Z,54.79
2023-03-06T16:29:22.399Z,55.25
2023-03-06T16:31:49.116Z,55.16
2023-03-06T16:34:15.792Z,54.98
2023-03-06T16:36:42.584Z,56.12
2023-03-06T16:39:14.463Z,56.20
2023-03-06T16:41:41.083Z,55.36
2023-03-06T16:44:09.950Z,55.07
2023-03-06T16:46:40.709Z,55.96
2023-03-06T16:49:07.333Z,55.74
2023-03-06T16:51:34.021Z,56.33
2023-03-06T16:54:00.597Z,56.08
2023-03-06T16:56:27.158Z,56.47
2023-03-06T16:58:54.025Z,57.61
2023-03-06T17:01:20.650Z,56.99
2023-03-06T17:03:47.406Z,56.67
2023-03-06T17:06:19.579Z,56.96
2023-03-06T17:08:47.842Z,57.14
2023-03-06T17:11:14.815Z,56.48
2023-03-06T17:13:41.443Z,56.20
2023-03-06T17:16:11.240Z,56.13
2023-03-06T17:18:38.084Z,56.67
2023-03-06T17:21:04.855Z,56.21
2023-03-06T17:23:31.494Z,56.83
2023-03-06T17:26:10.478Z,57.45
2023-03-06T17:28:37.981Z,57.87
2023-03-06T17:31:15.642Z,57.44
2023-03-06T17:33:42.743Z,58.04
2023-03-06T17:36:10.115Z,57.92
2023-03-06T17:38:36.962Z,57.71
2023-03-06T17:41:05.807Z,57.68
2023-03-06T17:43:33.268Z,57.79
2023-03-06T17:46:08.378Z,57.41
2023-03-06T17:48:35.572Z,57.65
2023-03-06T17:51:02.337Z,57.55
2023-03-06T17:53:29.162Z,58.24
2023-03-06T17:55:57.984Z,57.63
2023-03-06T17:58:25.999Z,57.74
2023-03-06T18:00:52.964Z,57.27
2023-03-06T18:03:19.724Z,57.31
2023-03-06T18:05:46.319Z,58.49
2023-03-06T18:08:13.260Z,59.23
2023-03-06T18:10:41.597Z,60.48
2023-03-06T18:13:09.975Z,59.34
2023-03-06T18:15:40.647Z,58.42
2023-03-06T18:18:08.177Z,59.83
2023-03-06T18:20:41.753Z,59.56
2023-03-06T18:23:08.480Z,58.93
2023-03-06T18:25:35.295Z,59.54
2023-03-06T18:28:01.969Z,60.09
2023-03-06T18:30:28.962Z,60.36
2023-03-06T18:32:55.761Z,60.64
2023-03-06T18:35:22.408Z,61.35
2023-03-06T18:37:48.951Z,60.77
2023-03-06T18:40:15.796Z,60.46
2023-03-06T18:42:42.354Z,59.91
2023-03-06T18:45:09.976Z,60.21
2023-03-06T18:47:36.631Z,60.22
2023-03-06T18:50:03.448Z,60.75
2023-03-06T18:52:29.978Z,60.79
2023-03-06T18:54:56.629Z,60.74
2023-03-06T18:57:23.347Z,61.46
2023-03-06T18:59:50.037Z,61.57
2023-03-06T19:02:17.791Z,61.09
2023-03-06T19:04:44.329Z,60.94
2023-03-06T19:07:13.145Z,60.78
2023-03-06T19:09:39.878Z,61.20
2023-03-06T19:12:06.758Z,61.26
2023-03-06T19:14:33.460Z,60.75
2023-03-06T19:17:00.080Z,61.46
2023-03-06T19:19:26.864Z,61.16
2023-03-06T19:21:53.726Z,60.82
2023-03-06T19:24:20.360Z,60.71
2023-03-06T19:26:47.070Z,60.31
2023-03-06T19:29:13.632Z,60.19
2023-03-06T19:31:41.146Z,60.27
2023-03-06T19:34:08.309Z,59.82
2023-03-06T19:36:34.973Z,59.92
2023-03-06T19:39:04.230Z,60.29
2023-03-06T19:41:30.938Z,60.84
2023-03-06T19:43:59.505Z,60.11
2023-03-06T19:46:27.023Z,60.27
2023-03-06T19:48:56.206Z,60.26
2023-03-06T19:51:23.167Z,60.32
2023-03-06T19:53:49.713Z,60.11
2023-03-06T19:56:23.600Z,60.74
2023-03-06T19:58:51.016Z,60.75
2023-03-06T20:01:20.023Z,60.56
2023-03-06T20:03:47.219Z,60.72
2023-03-06T20:06:16.328Z,60.32
2023-03-06T20:08:44.159Z,60.57
2023-03-06T20:11:22.150Z,60.32
2023-03-06T20:13:48.937Z,61.03
2023-03-06T20:16:17.362Z,60.80
2023-03-06T20:18:44.342Z,60.72
2023-03-06T20:21:11.135Z,60.45
2023-03-06T20:23:38.007Z,60.37
2023-03-06T20:26:07.090Z,60.36
2023-03-06T20:28:33.899Z,60.06
2023-03-06T20:31:08.771Z,59.94
2023-03-06T20:33:35.439Z,59.76
2023-03-06T20:36:02.347Z,59.70
2023-03-06T20:38:29.031Z,60.52
2023-03-06T20:40:57.721Z,60.45
2023-03-06T20:43:24.256Z,60.24
2023-03-06T20:46:02.491Z,61.21
2023-03-06T20:48:29.798Z,60.74
2023-03-06T20:51:00.934Z,60.15
2023-03-06T20:53:27.806Z,60.21
2023-03-06T20:55:54.553Z,60.34
2023-03-06T20:58:26.544Z,61.46
2023-03-06T21:00:53.091Z,61.35
2023-03-06T21:03:19.777Z,60.82
2023-03-06T21:05:47.758Z,60.97
2023-03-06T21:08:15.547Z,60.90
2023-03-06T21:10:43.968Z,60.84
2023-03-06T21:13:11.448Z,60.65
2023-03-06T21:15:39.154Z,61.14
2023-03-06T21:18:06.282Z,61.58
2023-03-06T21:20:33.979Z,61.62
2023-03-06T21:23:01.711Z,61.56
2023-03-06T21:25:28.866Z,61.24
2023-03-06T21:27:56.292Z,61.55
2023-03-06T21:30:22.863Z,62.44
2023-03-06T21:32:51.852Z,61.87
2023-03-06T21:35:19.288Z,61.63
2023-03-06T21:37:46.993Z,61.00
2023-03-06T21:40:14.219Z,61.99
2023-03-06T21:42:41.252Z,61.55
2023-03-06T21:45:08.199Z,62.22
2023-03-06T21:47:38.674Z,62.12
2023-03-06T21:50:07.173Z,62.21
2023-03-06T21:52:33.773Z,63.07
2023-03-06T21:55:00.339Z,62.25
2023-03-06T21:57:26.952Z,61.78
2023-03-06T21:59:53.505Z,61.49
2023-03-06T22:02:21.224Z,61.60
2023-03-06T22:04:54.219Z,62.23
2023-03-06T22:07:21.539Z,61.57
2023-03-06T22:09:48.194Z,62.29
2023-03-06T22:12:14.711Z,62.50
2023-03-06T22:14:43.451Z,62.52
2023-03-06T22:17:10.015Z,62.57
2023-03-06T22:19:36.606Z,61.50
2023-03-06T22:22:03.755Z,61.46
2023-03-06T22:24:31.651Z,61.44
2023-03-06T22:26:58.517Z,62.30
2023-03-06T22:29:25.090Z,61.54
2023-03-06T22:31:52.717Z,61.23
2023-03-06T22:34:19.324Z,61.67
2023-03-06T22:36:45.963Z,61.40
2023-03-06T22:39:13.898Z,61.49
2023-03-06T22:41:41.255Z,61.61
2023-03-06T22:44:07.904Z,61.00
2023-03-06T22:46:34.534Z,61.23
2023-03-06T22:49:04.992Z,61.14
2023-03-06T22:51:31.793Z,61.11
2023-03-06T22:53:58.639Z,60.77
2023-03-06T22:56:25.217Z,60.55
2023-03-06T22:58:51.970Z,59.96
2023-03-06T23:01:21.173Z,60.08
2023-03-06T23:03:50.411Z,59.59
2023-03-06T23:06:19.984Z,60.02
2023-03-06T23:09:02.106Z,60.05
2023-03-06T23:11:29.271Z,60.09
2023-03-06T23:14:15.925Z,60.77
2023-03-06T23:17:00.868Z,60.42
2023-03-06T23:19:49.184Z,61.08
2023-03-06T23:22:34.350Z,60.95
2023-03-06T23:25:19.440Z,61.81
2023-03-06T23:27:45.980Z,61.50
2023-03-06T23:30:13.045Z,61.96
2023-03-06T23:32:39.743Z,60.59
2023-03-06T23:35:07.523Z,60.15
2023-03-06T23:37:34.044Z,60.14
2023-03-06T23:40:00.839Z,60.74
2023-03-06T23:42:27.387Z,60.33
2023-03-06T23:44:53.931Z,59.63
2023-03-06T23:47:20.545Z,60.39
2023-03-06T23:49:47.115Z,59.60
2023-03-06T23:52:13.911Z,59.75
2023-03-06T23:54:40.650Z,60.07
2023-03-06T23:57:07.505Z,59.41
2023-03-06T23:59:34.072Z,59.82
